createdAt,value
2019-05-05T00:02:40.827Z,81.30
2019-05-05T00:05:21.351Z,81.30
2019-05-05T00:07:54.055Z,81.50
2019-05-05T00:10:34.807Z,81.80
2019-05-05T00:13:36.532Z,82.10
2019-05-05T00:16:35.106Z,82.40
2019-05-05T00:19:05.934Z,82.80
2019-05-05T00:21:36.571Z,82.90
2019-05-05T00:24:07.053Z,82.80
2019-05-05T00:26:37.597Z,83.00
2019-05-05T00:29:08.187Z,83.10
2019-05-05T00:31:39.148Z,83.10
2019-05-05T00:34:10.154Z,83.70
2019-05-05T00:36:40.695Z,83.70
2019-05-05T00:39:11.463Z,84.10
2019-05-05T00:41:41.965Z,83.90
2019-05-05T00:44:12.454Z,83.90
2019-05-05T00:47:01.874Z,84.10
2019-05-05T00:49:45.514Z,83.60
2019-05-05T00:52:05.741Z,84.30
2019-05-05T00:54:36.167Z,84.50
2019-05-05T00:57:06.643Z,84.40
2019-05-05T00:59:37.221Z,84.40
2019-05-05T01:02:35.807Z,84.20
2019-05-05T01:05:18.153Z,83.90
2019-05-05T01:07:48.694Z,84.10
2019-05-05T01:10:19.266Z,84.50
2019-05-05T01:12:49.789Z,85.20
2019-05-05T01:15:20.312Z,84.70
2019-05-05T01:17:50.901Z,84.40
2019-05-05T01:20:21.524Z,84.30
2019-05-05T01:22:52.029Z,83.80
2019-05-05T01:25:22.542Z,84.10
2019-05-05T01:27:54.562Z,84.00
2019-05-05T01:30:30.207Z,84.30
2019-05-05T01:33:07.213Z,84.50
2019-05-05T01:35:37.877Z,84.70
2019-05-05T01:38:14.325Z,85.00
2019-05-05T01:41:04.278Z,85.10
2019-05-05T01:43:34.755Z,85.30
2019-05-05T01:46:05.523Z,85.50
2019-05-05T01:48:36.045Z,85.70
2019-05-05T01:51:06.615Z,85.00
2019-05-05T01:53:37.046Z,85.20
2019-05-05T01:58:37.486Z,85.20
2019-05-05T02:01:07.947Z,86.10
2019-05-05T02:03:38.471Z,86.30
2019-05-05T02:06:08.944Z,86.20
2019-05-05T02:08:45.258Z,86.20
2019-05-05T02:11:15.697Z,86.30
2019-05-05T02:13:46.334Z,86.40
2019-05-05T02:16:16.831Z,86.00
2019-05-05T02:18:47.360Z,86.40
2019-05-05T02:21:17.912Z,86.60
2019-05-05T02:23:48.403Z,86.60
2019-05-05T02:26:18.932Z,86.40
2019-05-05T02:29:14.526Z,86.50
2019-05-05T02:32:25.414Z,86.60
2019-05-05T02:34:57.583Z,87.00
2019-05-05T02:37:28.299Z,87.30
2019-05-05T02:40:03.285Z,87.20
2019-05-05T02:42:31.937Z,87.00
2019-05-05T02:45:05.672Z,86.80
2019-05-05T02:47:56.527Z,86.70
2019-05-05T02:50:50.452Z,86.80
2019-05-05T02:53:04.696Z,86.80
2019-05-05T02:55:35.464Z,87.90
2019-05-05T02:58:05.946Z,87.10
2019-05-05T03:01:05.145Z,87.40
2019-05-05T03:03:37.640Z,88.30
2019-05-05T03:06:08.126Z,87.70
2019-05-05T03:08:41.429Z,87.80
2019-05-05T03:11:14.509Z,87.80
2019-05-05T03:13:48.340Z,87.90
2019-05-05T03:16:20.992Z,88.10
2019-05-05T03:18:54.368Z,88.10
2019-05-05T03:21:26.074Z,88.00
2019-05-05T03:23:56.826Z,87.80
2019-05-05T03:26:27.902Z,88.00
2019-05-05T03:28:59.686Z,88.20
2019-05-05T03:31:30.675Z,88.40
2019-05-05T03:34:01.167Z,88.80
2019-05-05T03:36:33.790Z,88.90
2019-05-05T03:39:05.987Z,89.20
2019-05-05T03:41:51.040Z,88.40
2019-05-05T03:44:25.389Z,88.20
2019-05-05T03:46:56.558Z,88.10
2019-05-05T03:49:27.327Z,88.10
2019-05-05T03:51:57.940Z,88.20
2019-05-05T03:54:28.657Z,88.40
2019-05-05T03:57:08.568Z,88.60
2019-05-05T03:59:46.823Z,89.00
2019-05-05T04:02:36.077Z,89.10
2019-05-05T04:05:17.236Z,89.00
2019-05-05T04:07:47.734Z,88.80
2019-05-05T04:10:18.316Z,88.70
2019-05-05T04:12:49.851Z,88.80
2019-05-05T04:15:20.329Z,89.00
2019-05-05T04:18:04.026Z,88.60
2019-05-05T04:20:37.693Z,89.00
2019-05-05T04:23:08.225Z,89.00
2019-05-05T04:25:38.810Z,89.20
2019-05-05T04:28:09.278Z,89.40
2019-05-05T04:30:39.748Z,89.30
2019-05-05T04:33:10.223Z,89.40
2019-05-05T04:35:40.824Z,91.00
2019-05-05T04:38:11.284Z,89.40
2019-05-05T04:40:43.540Z,89.60
2019-05-05T04:43:14.411Z,89.20
2019-05-05T04:45:45.123Z,89.40
2019-05-05T04:48:24.202Z,90.00
2019-05-05T04:51:13.875Z,89.60
2019-05-05T04:54:03.827Z,89.70
2019-05-05T04:56:34.738Z,89.80
2019-05-05T04:59:05.301Z,89.90
2019-05-05T05:01:36.349Z,89.90
2019-05-05T05:04:37.971Z,89.80
2019-05-05T05:07:08.487Z,90.00
2019-05-05T05:09:38.962Z,89.90
2019-05-05T05:12:09.445Z,90.00
2019-05-05T05:14:39.881Z,90.00
2019-05-05T05:17:14.742Z,90.00
2019-05-05T05:19:45.213Z,90.00
2019-05-05T05:22:15.767Z,90.10
2019-05-05T05:24:46.246Z,89.90
2019-05-05T05:27:16.847Z,89.70
2019-05-05T05:29:47.319Z,89.90
2019-05-05T05:32:17.811Z,89.70
2019-05-05T05:34:48.305Z,89.20
2019-05-05T05:37:18.983Z,89.00
2019-05-05T05:39:58.849Z,88.70
2019-05-05T05:42:29.441Z,88.40
2019-05-05T05:45:28.135Z,87.90
2019-05-05T05:48:16.315Z,87.60
2019-05-05T05:50:59.101Z,87.50
2019-05-05T05:53:29.725Z,87.50
2019-05-05T05:56:00.389Z,87.20
2019-05-05T05:58:30.927Z,87.40
2019-05-05T06:01:01.449Z,87.10
2019-05-05T06:03:33.876Z,87.10
2019-05-05T06:06:04.663Z,86.80
2019-05-05T06:08:35.633Z,86.00
2019-05-05T06:11:06.225Z,86.00
2019-05-05T06:13:36.802Z,86.00
2019-05-05T06:16:07.333Z,86.80
2019-05-05T06:18:37.829Z,85.10
2019-05-05T06:21:08.302Z,84.80
2019-05-05T06:23:39.168Z,83.80
2019-05-05T06:26:09.701Z,82.80
2019-05-05T06:28:40.281Z,81.80
2019-05-05T06:31:10.835Z,81.00
2019-05-05T06:33:41.272Z,80.00
2019-05-05T06:36:11.853Z,79.50
2019-05-05T06:38:43.705Z,80.20
2019-05-05T06:41:36.237Z,79.60
2019-05-05T06:44:16.203Z,79.10
2019-05-05T06:47:01.422Z,78.80
2019-05-05T06:49:32.072Z,79.10
2019-05-05T06:52:04.035Z,79.10
2019-05-05T06:54:35.009Z,79.00
2019-05-05T06:57:06.623Z,78.40
2019-05-05T06:59:37.091Z,78.40
2019-05-05T07:02:07.813Z,75.90
2019-05-05T07:04:38.422Z,75.10
2019-05-05T07:07:08.985Z,74.10
2019-05-05T07:09:39.580Z,72.50
2019-05-05T07:12:10.489Z,70.50
2019-05-05T07:14:41.006Z,69.60
2019-05-05T07:17:13.892Z,68.10
2019-05-05T07:19:44.974Z,66.80
2019-05-05T07:22:17.702Z,65.50
2019-05-05T07:24:48.394Z,64.70
2019-05-05T07:27:18.946Z,62.90
2019-05-05T07:29:49.447Z,62.00
2019-05-05T07:32:19.920Z,60.80
2019-05-05T07:35:09.381Z,61.20
2019-05-05T07:37:40.122Z,60.80
2019-05-05T07:40:13.423Z,60.80
2019-05-05T07:42:44.081Z,59.40
2019-05-05T07:45:22.588Z,58.30
2019-05-05T07:47:47.696Z,58.30
2019-05-05T07:50:28.573Z,58.00
2019-05-05T07:52:50.898Z,57.20
2019-05-05T07:55:23.641Z,57.30
2019-05-05T07:57:53.915Z,57.90
2019-05-05T08:00:24.431Z,56.50
2019-05-05T08:02:55.051Z,55.70
2019-05-05T08:05:25.679Z,56.00
2019-05-05T08:07:56.177Z,56.30
2019-05-05T08:10:26.802Z,55.00
2019-05-05T08:12:58.319Z,55.20
2019-05-05T08:15:29.423Z,53.40
2019-05-05T08:18:21.603Z,53.60
2019-05-05T08:20:54.999Z,53.60
2019-05-05T08:23:58.830Z,52.70
2019-05-05T08:26:48.242Z,51.50
2019-05-05T08:29:37.123Z,51.90
2019-05-05T08:32:28.631Z,50.40
2019-05-05T08:35:00.998Z,51.90
2019-05-05T08:37:31.295Z,52.10
2019-05-05T08:40:04.189Z,53.30
2019-05-05T08:42:34.039Z,56.30
2019-05-05T08:45:04.699Z,55.50
2019-05-05T08:47:35.198Z,55.20
2019-05-05T08:50:05.826Z,53.20
2019-05-05T08:52:36.384Z,50.80
2019-05-05T08:55:07.461Z,51.10
2019-05-05T08:57:38.066Z,50.20
2019-05-05T09:00:09.565Z,49.60
2019-05-05T09:02:40.036Z,49.90
2019-05-05T09:05:10.769Z,50.50
2019-05-05T09:07:41.323Z,49.10
2019-05-05T09:10:14.253Z,48.70
2019-05-05T09:12:44.604Z,49.50
2019-05-05T09:15:15.747Z,50.40
2019-05-05T09:17:46.222Z,50.50
2019-05-05T09:20:16.765Z,49.70
2019-05-05T09:22:47.397Z,49.40
2019-05-05T09:25:29.710Z,48.90
2019-05-05T09:28:06.178Z,48.50
2019-05-05T09:30:44.284Z,48.70
2019-05-05T09:33:18.182Z,48.70
2019-05-05T09:35:47.741Z,49.30
2019-05-05T09:38:34.520Z,49.60
2019-05-05T09:41:04.731Z,50.10
2019-05-05T09:43:35.431Z,50.20
2019-05-05T09:46:06.036Z,50.10
2019-05-05T09:48:36.591Z,50.60
2019-05-05T09:51:07.178Z,47.70
2019-05-05T09:53:37.804Z,44.80
2019-05-05T09:56:08.405Z,43.90
2019-05-05T09:58:38.938Z,44.20
2019-05-05T10:01:09.523Z,46.20
2019-05-05T10:03:40.126Z,47.60
2019-05-05T10:06:10.664Z,49.10
2019-05-05T10:08:41.175Z,48.50
2019-05-05T10:11:11.725Z,48.30
2019-05-05T10:13:44.145Z,49.00
2019-05-05T10:16:14.641Z,49.40
2019-05-05T10:18:45.143Z,50.10
2019-05-05T10:21:17.773Z,51.50
2019-05-05T10:23:49.388Z,51.50
2019-05-05T10:26:20.034Z,52.30
2019-05-05T10:28:50.603Z,52.30
2019-05-05T10:31:21.083Z,53.40
2019-05-05T10:33:55.692Z,53.50
2019-05-05T10:36:26.270Z,52.60
2019-05-05T10:39:01.603Z,52.90
2019-05-05T10:41:33.852Z,51.40
2019-05-05T10:44:04.471Z,50.80
2019-05-05T10:46:34.972Z,51.10
2019-05-05T10:49:06.504Z,50.60
2019-05-05T10:51:37.093Z,49.30
2019-05-05T10:54:07.569Z,48.90
2019-05-05T10:56:38.231Z,48.70
2019-05-05T10:59:08.822Z,48.90
2019-05-05T11:01:39.532Z,48.60
2019-05-05T11:04:10.074Z,47.60
2019-05-05T11:06:40.894Z,49.10
2019-05-05T11:09:13.364Z,49.40
2019-05-05T11:11:43.915Z,49.50
2019-05-05T11:14:14.539Z,48.10
2019-05-05T11:16:45.110Z,47.90
2019-05-05T11:19:15.600Z,46.40
2019-05-05T11:21:46.283Z,46.20
2019-05-05T11:24:16.836Z,44.80
2019-05-05T11:26:47.396Z,43.10
2019-05-05T11:29:17.928Z,41.80
2019-05-05T11:31:48.411Z,43.10
2019-05-05T11:34:24.603Z,42.00
2019-05-05T11:37:03.617Z,42.10
2019-05-05T11:39:34.070Z,42.50
2019-05-05T11:42:05.656Z,42.70
2019-05-05T11:44:37.594Z,42.40
2019-05-05T11:47:08.232Z,43.00
2019-05-05T11:49:38.822Z,43.80
2019-05-05T11:52:09.377Z,43.80
2019-05-05T11:54:39.868Z,41.00
2019-05-05T11:57:10.336Z,40.30
2019-05-05T11:59:40.836Z,40.30
2019-05-05T12:02:13.961Z,38.80
2019-05-05T12:04:44.631Z,38.10
2019-05-05T12:07:15.182Z,37.00
2019-05-05T12:09:54.912Z,36.70
2019-05-05T12:12:25.605Z,37.80
2019-05-05T12:14:56.202Z,39.50
2019-05-05T12:17:36.387Z,41.30
2019-05-05T12:20:07.713Z,41.10
2019-05-05T12:22:38.310Z,40.70
2019-05-05T12:25:28.552Z,40.80
2019-05-05T12:28:06.653Z,42.20
2019-05-05T12:30:37.296Z,41.60
2019-05-05T12:33:07.918Z,43.10
2019-05-05T12:35:38.560Z,44.40
2019-05-05T12:38:09.415Z,44.90
2019-05-05T12:40:39.977Z,43.70
2019-05-05T12:43:10.536Z,40.70
2019-05-05T12:45:43.952Z,39.00
2019-05-05T12:48:24.128Z,38.80
2019-05-05T12:50:54.828Z,41.20
2019-05-05T12:53:25.515Z,43.20
2019-05-05T12:55:56.119Z,43.70
2019-05-05T12:58:26.688Z,44.60
2019-05-05T13:01:10.473Z,43.60
2019-05-05T13:03:41.000Z,43.10
2019-05-05T13:06:11.557Z,42.30
2019-05-05T13:08:44.371Z,42.00
2019-05-05T13:11:14.357Z,43.30
2019-05-05T13:13:44.948Z,42.70
2019-05-05T13:16:16.497Z,42.90
2019-05-05T13:18:47.150Z,44.60
2019-05-05T13:21:39.451Z,44.20
2019-05-05T13:24:19.289Z,41.60
2019-05-05T13:26:57.570Z,40.50
2019-05-05T13:29:30.016Z,39.70
2019-05-05T13:32:00.648Z,39.40
2019-05-05T13:34:31.266Z,40.30
2019-05-05T13:37:03.481Z,41.50
2019-05-05T13:39:34.217Z,41.80
2019-05-05T13:42:05.412Z,43.30
2019-05-05T13:44:53.314Z,43.90
2019-05-05T13:47:23.974Z,45.10
2019-05-05T13:49:58.252Z,45.80
2019-05-05T13:52:29.268Z,45.60
2019-05-05T13:54:59.803Z,45.20
2019-05-05T13:57:30.376Z,45.10
2019-05-05T14:00:00.942Z,44.30
2019-05-05T14:02:33.401Z,44.00
2019-05-05T14:05:04.654Z,43.30
2019-05-05T14:07:35.442Z,42.70
2019-05-05T14:10:06.394Z,43.20
2019-05-05T14:12:37.069Z,44.30
2019-05-05T14:15:09.446Z,41.90
2019-05-05T14:17:40.696Z,41.80
2019-05-05T14:20:12.074Z,41.90
2019-05-05T14:25:19.480Z,43.40
2019-05-05T14:27:50.035Z,44.20
2019-05-05T14:30:43.499Z,45.30
2019-05-05T14:33:18.230Z,46.20
2019-05-05T14:36:24.445Z,47.10
2019-05-05T14:38:56.941Z,46.10
2019-05-05T14:41:27.496Z,46.70
2019-05-05T14:43:57.953Z,46.60
2019-05-05T14:46:28.524Z,47.80
2019-05-05T14:48:59.354Z,48.60
2019-05-05T14:51:29.884Z,48.00
2019-05-05T14:54:00.674Z,48.00
2019-05-05T14:56:36.598Z,48.20
2019-05-05T14:59:04.334Z,48.90
2019-05-05T15:01:34.971Z,47.40
2019-05-05T15:04:05.675Z,48.80
2019-05-05T15:07:01.007Z,49.00
2019-05-05T15:09:49.776Z,49.00
2019-05-05T15:12:36.645Z,49.30
2019-05-05T15:15:07.867Z,49.80
2019-05-05T15:17:38.464Z,49.60
2019-05-05T15:20:09.380Z,49.00
2019-05-05T15:22:39.943Z,48.40
2019-05-05T15:25:10.579Z,48.40
2019-05-05T15:27:41.384Z,46.40
2019-05-05T15:30:11.921Z,46.10
2019-05-05T15:32:43.793Z,45.80
2019-05-05T15:35:14.545Z,47.30
2019-05-05T15:37:45.230Z,46.60
2019-05-05T15:40:16.087Z,47.40
2019-05-05T15:42:46.690Z,48.00
2019-05-05T15:45:17.344Z,48.20
2019-05-05T15:47:47.969Z,47.30
2019-05-05T15:50:18.529Z,47.80
2019-05-05T15:52:49.039Z,47.40
2019-05-05T15:55:19.791Z,47.60
2019-05-05T15:57:50.306Z,46.80
2019-05-05T16:00:20.989Z,46.30
2019-05-05T16:02:51.670Z,46.00
2019-05-05T16:05:24.154Z,46.00
2019-05-05T16:07:54.584Z,46.80
2019-05-05T16:10:26.278Z,47.50
2019-05-05T16:12:56.778Z,47.60
2019-05-05T16:15:53.532Z,46.60
2019-05-05T16:18:40.678Z,47.20
2019-05-05T16:21:36.538Z,48.00
2019-05-05T16:24:11.567Z,48.60
2019-05-05T16:26:42.185Z,49.40
2019-05-05T16:29:14.729Z,49.10
2019-05-05T16:31:45.046Z,48.60
2019-05-05T16:34:15.747Z,48.90
2019-05-05T16:36:46.295Z,49.00
2019-05-05T16:39:17.085Z,48.60
2019-05-05T16:41:47.581Z,48.40
2019-05-05T16:44:18.137Z,48.80
2019-05-05T16:46:48.827Z,49.00
2019-05-05T16:49:19.450Z,48.20
2019-05-05T16:52:00.922Z,48.90
2019-05-05T16:54:36.883Z,48.40
2019-05-05T16:57:07.468Z,48.40
2019-05-05T16:59:37.968Z,48.60
2019-05-05T17:02:08.439Z,48.10
2019-05-05T17:04:38.993Z,48.30
2019-05-05T17:07:09.495Z,48.80
2019-05-05T17:09:40.018Z,48.10
2019-05-05T17:12:10.464Z,48.10
2019-05-05T17:14:59.594Z,48.70
2019-05-05T17:17:36.121Z,48.50
2019-05-05T17:20:10.204Z,49.10
2019-05-05T17:22:45.201Z,49.10
2019-05-05T17:25:15.774Z,49.00
2019-05-05T17:27:50.805Z,48.80
2019-05-05T17:30:20.336Z,48.10
2019-05-05T17:32:50.865Z,48.40
2019-05-05T17:35:21.385Z,48.60
2019-05-05T17:37:53.738Z,48.60
2019-05-05T17:40:33.712Z,48.90
2019-05-05T17:43:24.833Z,49.90
2019-05-05T17:46:06.917Z,49.40
2019-05-05T17:48:53.709Z,49.40
2019-05-05T17:51:43.665Z,50.20
2019-05-05T17:54:42.195Z,50.10
2019-05-05T17:57:14.238Z,50.00
2019-05-05T17:59:45.115Z,50.60
2019-05-05T18:02:15.674Z,50.60
2019-05-05T18:04:46.561Z,51.00
2019-05-05T18:07:38.866Z,52.10
2019-05-05T18:10:28.113Z,52.80
2019-05-05T18:13:17.578Z,54.50
2019-05-05T18:15:57.349Z,55.60
2019-05-05T18:18:27.965Z,56.40
2019-05-05T18:20:58.669Z,56.80
2019-05-05T18:23:38.638Z,57.10
2019-05-05T18:26:09.188Z,57.60
2019-05-05T18:28:39.801Z,58.20
2019-05-05T18:31:10.412Z,56.90
2019-05-05T18:33:40.884Z,56.70
2019-05-05T18:36:11.409Z,56.40
2019-05-05T18:38:41.973Z,57.60
2019-05-05T18:41:20.379Z,57.30
2019-05-05T18:44:00.758Z,57.00
2019-05-05T18:46:31.392Z,56.90
2019-05-05T18:49:01.971Z,58.30
2019-05-05T18:51:34.611Z,57.60
2019-05-05T18:54:04.686Z,57.30
2019-05-05T18:56:35.469Z,57.50
2019-05-05T18:59:06.732Z,58.10
2019-05-05T19:01:47.712Z,57.90
2019-05-05T19:04:27.256Z,57.00
2019-05-05T19:07:01.627Z,58.00
2019-05-05T19:09:33.972Z,58.30
2019-05-05T19:12:04.543Z,57.60
2019-05-05T19:14:35.123Z,57.80
2019-05-05T19:17:05.821Z,58.40
2019-05-05T19:19:37.570Z,58.30
2019-05-05T19:22:10.587Z,58.40
2019-05-05T19:24:41.193Z,58.80
2019-05-05T19:27:14.063Z,59.30
2019-05-05T19:29:46.216Z,59.40
2019-05-05T19:32:16.257Z,59.90
2019-05-05T19:34:46.857Z,60.20
2019-05-05T19:37:17.370Z,60.40
2019-05-05T19:39:47.960Z,60.70
2019-05-05T19:42:18.527Z,61.50
2019-05-05T19:44:49.128Z,61.90
2019-05-05T19:47:21.158Z,61.80
2019-05-05T19:49:57.575Z,61.70
2019-05-05T19:52:28.109Z,61.90
2019-05-05T19:54:58.754Z,61.90
2019-05-05T19:57:29.332Z,62.40
2019-05-05T19:59:59.895Z,62.70
2019-05-05T20:02:30.381Z,61.60
2019-05-05T20:05:01.127Z,61.30
2019-05-05T20:07:31.707Z,61.60
2019-05-05T20:10:04.046Z,62.00
2019-05-05T20:12:34.492Z,62.50
2019-05-05T20:15:07.085Z,62.80
2019-05-05T20:17:38.171Z,62.70
2019-05-05T20:20:08.986Z,63.20
2019-05-05T20:22:39.475Z,63.60
2019-05-05T20:25:10.130Z,63.70
2019-05-05T20:27:40.729Z,63.90
2019-05-05T20:30:11.364Z,64.20
2019-05-05T20:33:05.308Z,64.60
2019-05-05T20:35:42.958Z,65.10
2019-05-05T20:38:16.422Z,66.10
2019-05-05T20:41:06.035Z,65.90
2019-05-05T20:43:37.595Z,66.40
2019-05-05T20:46:08.751Z,65.70
2019-05-05T20:48:41.237Z,64.40
2019-05-05T20:51:13.424Z,64.10
2019-05-05T20:53:44.750Z,63.80
2019-05-05T20:56:16.032Z,64.10
2019-05-05T20:58:46.521Z,64.00
2019-05-05T21:01:17.400Z,64.60
2019-05-05T21:03:48.260Z,64.70
2019-05-05T21:06:19.138Z,65.30
2019-05-05T21:08:49.907Z,65.10
2019-05-05T21:11:20.624Z,66.00
2019-05-05T21:13:51.448Z,65.90
2019-05-05T21:16:23.701Z,65.80
2019-05-05T21:18:54.370Z,66.70
2019-05-05T21:21:27.284Z,67.20
2019-05-05T21:23:59.758Z,67.50
2019-05-05T21:26:47.588Z,68.00
2019-05-05T21:29:17.009Z,68.40
2019-05-05T21:31:47.918Z,68.30
2019-05-05T21:34:18.450Z,68.90
2019-05-05T21:36:48.950Z,69.90
2019-05-05T21:39:19.418Z,70.20
2019-05-05T21:41:49.884Z,70.50
2019-05-05T21:44:20.359Z,70.30
2019-05-05T21:46:50.832Z,69.70
2019-05-05T21:49:21.396Z,71.00
2019-05-05T21:52:23.889Z,73.40
2019-05-05T21:54:58.679Z,74.50
2019-05-05T21:57:51.114Z,75.00
2019-05-05T22:00:38.988Z,74.40
2019-05-05T22:03:14.011Z,74.60
2019-05-05T22:05:44.577Z,74.80
2019-05-05T22:08:15.195Z,75.90
2019-05-05T22:10:45.761Z,78.30
2019-05-05T22:13:16.331Z,77.80
2019-05-05T22:15:47.101Z,77.30
2019-05-05T22:18:17.578Z,77.20
2019-05-05T22:20:54.652Z,76.90
2019-05-05T22:23:25.311Z,77.20
2019-05-05T22:25:55.849Z,77.00
2019-05-05T22:28:26.551Z,79.20
2019-05-05T22:30:56.990Z,78.20
2019-05-05T22:33:27.496Z,78.10
2019-05-05T22:35:58.149Z,76.40
2019-05-05T22:38:28.624Z,75.80
2019-05-05T22:41:00.226Z,75.70
2019-05-05T22:43:30.744Z,75.80
2019-05-05T22:46:03.474Z,75.50
2019-05-05T22:48:34.488Z,75.20
2019-05-05T22:51:05.209Z,75.00
2019-05-05T22:53:35.730Z,75.10
2019-05-05T22:56:06.373Z,74.90
2019-05-05T22:58:36.897Z,75.00
2019-05-05T23:01:07.467Z,75.30
2019-05-05T23:03:46.762Z,75.60
2019-05-05T23:06:20.254Z,76.10
2019-05-05T23:08:50.781Z,76.10
2019-05-05T23:11:23.960Z,76.20
2019-05-05T23:13:57.177Z,76.70
2019-05-05T23:16:47.720Z,76.50
2019-05-05T23:19:18.401Z,76.00
2019-05-05T23:21:54.911Z,76.70
2019-05-05T23:24:47.193Z,76.40
2019-05-05T23:27:35.393Z,77.00
2019-05-05T23:30:06.541Z,76.60
2019-05-05T23:32:37.214Z,75.60
2019-05-05T23:35:07.985Z,75.90
2019-05-05T23:37:38.441Z,75.80
2019-05-05T23:40:09.315Z,76.30
2019-05-05T23:42:39.864Z,76.40
2019-05-05T23:45:10.477Z,75.80
2019-05-05T23:47:40.945Z,75.70
2019-05-05T23:50:13.381Z,75.70
2019-05-05T23:52:44.348Z,75.60
2019-05-05T23:55:17.969Z,75.70
2019-05-05T23:57:48.459Z,76.00
